Turin Airport

LIMF · 皮埃蒙特, 意大利

罗盘
风向 的 风向 320° Turin Airport 18/36
风: 6 kt, 2 beaufort

4 kt

4 kt
改变
0 ft 1.000 2.000 3.000 4.000 5.000
Cloud Cloud Cloud Cloud Cloud Cloud Cloud Cloud
OVC 4.500
METAR LIMF 270050Z 32006KT 6000 OVC045 06/04 Q1006

METAR Turin Airport - LIMF/TRN

Turin Airport是,意大利中的大型机场。 该机场位于纬度45,20080和经度7,64963。 该机场有一条跑道: 18/36. 本场的ICAO机场代码为LIMF。 该机场的IATA代码为TRN。 机场在Milano FIR中。

该航空气象观测是针对Turin Airport在2024年2月27日 01:50, 当地时间进行的。

机场观察

风向为320°,速度为6 kt。

可见度为6 km。

有乌云密布在4.500 ft的高度。 破损或更高的上限为4.500 ft。

温度为6 °C,阵风为2 °C。 露点为4 °C,相对湿度为87%。 海平面上的气压为1006 hPa (QNH)。

白天

今天,太阳从07:11升起,在18:12降落。 这适用于Turin Airport,世界夏令时可能有所不同。 当地时间与世界标准时间之间的时差为+1 小时。 当前,没有夏令时有效。

公司介绍

在这个机场,你可以找到飞行学校。 本场上唯一已知的公司是Turin Flying School。

体会

到Vliegles.nl去找飞行课程,跳伞和其他飞行体验。 浏览页面,了解Turin Airport附近所有可用的活动。 你也可以使用搜索功能来寻找你所在地附近的特定飞行课程、跳伞或其他飞行体验。

跑道

Id 标题 侧风 逆风 侧风 %
18/36 182°-002° 4 kt 4 kt 67 %

逆风成分最大的方向会被突出显示,并用于横风计算。 这并不一定意味着这个方向在使用。

乌云

4.500 ft OVC 乌云密布

温度 & 天气

温度 6 °C
露点 4 °C
相对湿度 87%
风寒 2 °C
Kp-index 3 (0-9)

白天

日出
07:11 (5:00)
中午
12:42
日落
18:12

小工具

你想在你的网站上有一个关于Turin Airport的当前航空天气(METAR)的小部件吗?

显示HTML代码
?>